sensor_id;sensor_type;location;lat;lon;timestamp;pressure;altitude;pressure_sealevel;temperature;humidity
16525;BME280;8375;33.594;-117.718;2022-11-03T00:01:31;100373.78;;;17.03;54.23
16525;BME280;8375;33.594;-117.718;2022-11-03T00:04:00;100369.69;;;17.00;54.34
16525;BME280;8375;33.594;-117.718;2022-11-03T00:06:30;100379.19;;;17.01;56.44
16525;BME280;8375;33.594;-117.718;2022-11-03T00:08:59;100373.69;;;16.94;55.59
16525;BME280;8375;33.594;-117.718;2022-11-03T00:11:30;100371.75;;;16.96;55.56
16525;BME280;8375;33.594;-117.718;2022-11-03T00:13:59;100367.06;;;16.82;55.73
16525;BME280;8375;33.594;-117.718;2022-11-03T00:16:28;100364.25;;;16.75;55.93
16525;BME280;8375;33.594;-117.718;2022-11-03T00:18:57;100360.66;;;16.76;56.92
16525;BME280;8375;33.594;-117.718;2022-11-03T00:21:26;100360.97;;;16.73;55.92
16525;BME280;8375;33.594;-117.718;2022-11-03T00:23:56;100358.38;;;16.55;56.29
16525;BME280;8375;33.594;-117.718;2022-11-03T00:26:27;100359.91;;;16.39;56.85
16525;BME280;8375;33.594;-117.718;2022-11-03T00:28:57;100368.31;;;16.43;57.80
16525;BME280;8375;33.594;-117.718;2022-11-03T00:31:29;100354.63;;;16.31;56.80
16525;BME280;8375;33.594;-117.718;2022-11-03T00:33:58;100368.63;;;16.22;55.53
16525;BME280;8375;33.594;-117.718;2022-11-03T00:36:30;100367.44;;;16.16;56.28
16525;BME280;8375;33.594;-117.718;2022-11-03T00:39:01;100370.66;;;16.10;56.54
16525;BME280;8375;33.594;-117.718;2022-11-03T00:41:30;100370.81;;;15.90;56.17
16525;BME280;8375;33.594;-117.718;2022-11-03T00:44:00;100365.28;;;15.83;56.44
16525;BME280;8375;33.594;-117.718;2022-11-03T00:46:29;100374.63;;;15.86;56.48
16525;BME280;8375;33.594;-117.718;2022-11-03T00:49:00;100388.16;;;15.91;57.24
16525;BME280;8375;33.594;-117.718;2022-11-03T00:51:29;100392.16;;;15.86;56.06
16525;BME280;8375;33.594;-117.718;2022-11-03T00:54:03;100394.09;;;15.83;56.54
16525;BME280;8375;33.594;-117.718;2022-11-03T00:56:34;100394.50;;;15.79;57.77
16525;BME280;8375;33.594;-117.718;2022-11-03T00:59:04;100398.94;;;15.78;57.19
16525;BME280;8375;33.594;-117.718;2022-11-03T01:01:34;100397.00;;;15.80;59.22
16525;BME280;8375;33.594;-117.718;2022-11-03T01:04:06;100408.19;;;15.73;58.98
16525;BME280;8375;33.594;-117.718;2022-11-03T01:06:53;100413.19;;;15.66;60.34
16525;BME280;8375;33.594;-117.718;2022-11-03T01:09:25;100425.44;;;15.65;61.10
16525;BME280;8375;33.594;-117.718;2022-11-03T01:11:57;100420.97;;;15.48;61.08
16525;BME280;8375;33.594;-117.718;2022-11-03T01:14:28;100419.50;;;15.45;62.85
16525;BME280;8375;33.594;-117.718;2022-11-03T01:16:57;100416.03;;;15.45;64.19
16525;BME280;8375;33.594;-117.718;2022-11-03T01:19:26;100425.59;;;15.36;63.72
16525;BME280;8375;33.594;-117.718;2022-11-03T01:21:55;100430.03;;;15.25;64.37
16525;BME280;8375;33.594;-117.718;2022-11-03T01:24:25;100434.88;;;15.20;64.13
16525;BME280;8375;33.594;-117.718;2022-11-03T01:26:54;100441.19;;;15.18;64.51
16525;BME280;8375;33.594;-117.718;2022-11-03T01:29:23;100437.66;;;15.09;64.96
16525;BME280;8375;33.594;-117.718;2022-11-03T01:31:52;100446.03;;;15.13;64.88
16525;BME280;8375;33.594;-117.718;2022-11-03T01:34:21;100447.44;;;14.97;66.34
16525;BME280;8375;33.594;-117.718;2022-11-03T01:36:50;100446.59;;;15.06;66.83
16525;BME280;8375;33.594;-117.718;2022-11-03T01:39:19;100454.59;;;15.05;66.67
16525;BME280;8375;33.594;-117.718;2022-11-03T01:41:51;100460.75;;;15.14;65.86
16525;BME280;8375;33.594;-117.718;2022-11-03T01:44:29;100459.25;;;15.11;66.25
16525;BME280;8375;33.594;-117.718;2022-11-03T01:47:08;100460.50;;;15.07;65.02
16525;BME280;8375;33.594;-117.718;2022-11-03T01:49:45;100460.91;;;15.02;65.23
16525;BME280;8375;33.594;-117.718;2022-11-03T01:52:18;100457.06;;;14.96;65.79
16525;BME280;8375;33.594;-117.718;2022-11-03T01:54:52;100449.25;;;14.87;66.19
16525;BME280;8375;33.594;-117.718;2022-11-03T01:57:28;100458.59;;;14.79;66.57
16525;BME280;8375;33.594;-117.718;2022-11-03T02:00:02;100456.94;;;14.78;66.19
16525;BME280;8375;33.594;-117.718;2022-11-03T02:02:32;100449.09;;;14.69;67.47
16525;BME280;8375;33.594;-117.718;2022-11-03T02:05:02;100445.00;;;14.56;68.45
16525;BME280;8375;33.594;-117.718;2022-11-03T02:07:35;100447.59;;;14.46;68.36
16525;BME280;8375;33.594;-117.718;2022-11-03T02:10:07;100460.38;;;14.49;67.95
16525;BME280;8375;33.594;-117.718;2022-11-03T02:12:38;100458.72;;;14.48;68.65
16525;BME280;8375;33.594;-117.718;2022-11-03T02:15:09;100462.72;;;14.43;68.38
16525;BME280;8375;33.594;-117.718;2022-11-03T02:17:41;100468.91;;;14.42;67.19
16525;BME280;8375;33.594;-117.718;2022-11-03T02:20:12;100474.66;;;14.45;67.22
16525;BME280;8375;33.594;-117.718;2022-11-03T02:23:05;100477.97;;;14.37;64.15
16525;BME280;8375;33.594;-117.718;2022-11-03T02:25:43;100477.69;;;14.31;65.07
16525;BME280;8375;33.594;-117.718;2022-11-03T02:28:14;100473.41;;;14.30;63.69
16525;BME280;8375;33.594;-117.718;2022-11-03T02:30:47;100468.34;;;14.28;64.44
16525;BME280;8375;33.594;-117.718;2022-11-03T02:36:09;100468.47;;;14.27;63.72
16525;BME280;8375;33.594;-117.718;2022-11-03T02:38:45;100468.88;;;14.32;64.61
16525;BME280;8375;33.594;-117.718;2022-11-03T02:41:17;100470.00;;;14.29;64.74
16525;BME280;8375;33.594;-117.718;2022-11-03T02:43:46;100464.34;;;14.24;64.45
16525;BME280;8375;33.594;-117.718;2022-11-03T02:46:16;100462.69;;;14.23;64.02
16525;BME280;8375;33.594;-117.718;2022-11-03T02:48:46;100461.88;;;14.22;63.97
16525;BME280;8375;33.594;-117.718;2022-11-03T02:51:15;100461.06;;;14.22;64.62
16525;BME280;8375;33.594;-117.718;2022-11-03T02:53:50;100471.50;;;14.22;64.67
16525;BME280;8375;33.594;-117.718;2022-11-03T02:56:23;100464.47;;;14.22;64.66
16525;BME280;8375;33.594;-117.718;2022-11-03T02:58:56;100471.06;;;14.27;64.76
16525;BME280;8375;33.594;-117.718;2022-11-03T03:01:31;100469.31;;;14.27;64.66
16525;BME280;8375;33.594;-117.718;2022-11-03T03:04:05;100470.53;;;14.23;64.38
16525;BME280;8375;33.594;-117.718;2022-11-03T03:06:40;100473.00;;;14.15;65.04
16525;BME280;8375;33.594;-117.718;2022-11-03T03:09:14;100478.50;;;14.12;65.65
16525;BME280;8375;33.594;-117.718;2022-11-03T03:11:47;100481.38;;;14.18;67.26
16525;BME280;8375;33.594;-117.718;2022-11-03T03:14:18;100477.66;;;14.11;65.78
16525;BME280;8375;33.594;-117.718;2022-11-03T03:16:52;100475.88;;;14.12;65.94
16525;BME280;8375;33.594;-117.718;2022-11-03T03:19:32;100475.31;;;14.08;66.48
16525;BME280;8375;33.594;-117.718;2022-11-03T03:22:11;100470.63;;;14.02;65.62
16525;BME280;8375;33.594;-117.718;2022-11-03T03:24:48;100478.44;;;13.92;65.88
16525;BME280;8375;33.594;-117.718;2022-11-03T03:27:23;100480.03;;;13.83;66.52
16525;BME280;8375;33.594;-117.718;2022-11-03T03:29:56;100479.34;;;13.81;67.38
16525;BME280;8375;33.594;-117.718;2022-11-03T03:32:27;100473.72;;;13.76;67.53
16525;BME280;8375;33.594;-117.718;2022-11-03T03:35:00;100484.16;;;13.76;68.74
16525;BME280;8375;33.594;-117.718;2022-11-03T03:37:31;100481.53;;;13.76;68.07
16525;BME280;8375;33.594;-117.718;2022-11-03T03:40:06;100483.16;;;13.67;69.18
16525;BME280;8375;33.594;-117.718;2022-11-03T03:42:40;100483.53;;;13.62;70.46
16525;BME280;8375;33.594;-117.718;2022-11-03T03:45:12;100482.47;;;13.65;68.93
16525;BME280;8375;33.594;-117.718;2022-11-03T03:47:42;100481.34;;;13.58;68.60
16525;BME280;8375;33.594;-117.718;2022-11-03T03:50:11;100480.06;;;13.52;69.87
16525;BME280;8375;33.594;-117.718;2022-11-03T03:52:40;100476.31;;;13.45;68.51
16525;BME280;8375;33.594;-117.718;2022-11-03T03:55:14;100478.97;;;13.33;70.81
16525;BME280;8375;33.594;-117.718;2022-11-03T03:57:46;100473.91;;;13.32;71.06
16525;BME280;8375;33.594;-117.718;2022-11-03T04:00:15;100478.69;;;13.27;71.97
16525;BME280;8375;33.594;-117.718;2022-11-03T04:02:44;100462.91;;;13.28;71.67
16525;BME280;8375;33.594;-117.718;2022-11-03T04:05:13;100463.03;;;13.27;72.83
16525;BME280;8375;33.594;-117.718;2022-11-03T04:07:42;100466.59;;;13.26;72.68
16525;BME280;8375;33.594;-117.718;2022-11-03T04:10:17;100471.81;;;13.26;72.97
16525;BME280;8375;33.594;-117.718;2022-11-03T04:12:49;100465.50;;;13.28;73.34
16525;BME280;8375;33.594;-117.718;2022-11-03T04:15:35;100458.66;;;13.27;73.17
16525;BME280;8375;33.594;-117.718;2022-11-03T04:18:24;100457.88;;;13.37;73.61
16525;BME280;8375;33.594;-117.718;2022-11-03T04:21:11;100461.56;;;13.34;73.02
16525;BME280;8375;33.594;-117.718;2022-11-03T04:23:57;100462.38;;;13.34;73.72
16525;BME280;8375;33.594;-117.718;2022-11-03T04:26:28;100468.44;;;13.35;73.95
16525;BME280;8375;33.594;-117.718;2022-11-03T04:29:00;100470.22;;;13.34;73.65
16525;BME280;8375;33.594;-117.718;2022-11-03T04:31:30;100471.47;;;13.40;74.48
16525;BME280;8375;33.594;-117.718;2022-11-03T04:34:04;100477.91;;;13.36;74.63
16525;BME280;8375;33.594;-117.718;2022-11-03T04:36:38;100475.31;;;13.36;74.83
16525;BME280;8375;33.594;-117.718;2022-11-03T04:39:15;100472.13;;;13.32;74.62
16525;BME280;8375;33.594;-117.718;2022-11-03T04:41:44;100474.44;;;13.26;74.08
16525;BME280;8375;33.594;-117.718;2022-11-03T04:44:15;100479.38;;;13.29;74.17
16525;BME280;8375;33.594;-117.718;2022-11-03T04:46:44;100486.09;;;13.31;74.00
16525;BME280;8375;33.594;-117.718;2022-11-03T04:49:19;100492.03;;;13.33;74.39
16525;BME280;8375;33.594;-117.718;2022-11-03T04:51:49;100482.88;;;13.39;74.42
16525;BME280;8375;33.594;-117.718;2022-11-03T04:54:20;100487.59;;;13.45;75.53
16525;BME280;8375;33.594;-117.718;2022-11-03T04:56:50;100486.19;;;13.41;75.11
16525;BME280;8375;33.594;-117.718;2022-11-03T04:59:21;100486.38;;;13.49;74.73
16525;BME280;8375;33.594;-117.718;2022-11-03T05:01:50;100477.03;;;13.47;75.56
16525;BME280;8375;33.594;-117.718;2022-11-03T05:04:18;100487.06;;;13.52;75.81
16525;BME280;8375;33.594;-117.718;2022-11-03T05:06:50;100488.16;;;13.49;74.76
16525;BME280;8375;33.594;-117.718;2022-11-03T05:09:23;100481.28;;;13.48;74.07
16525;BME280;8375;33.594;-117.718;2022-11-03T05:11:52;100484.84;;;13.47;73.74
16525;BME280;8375;33.594;-117.718;2022-11-03T05:14:24;100480.47;;;13.47;74.16
16525;BME280;8375;33.594;-117.718;2022-11-03T05:16:55;100478.81;;;13.46;74.61
16525;BME280;8375;33.594;-117.718;2022-11-03T05:19:27;100484.59;;;13.50;75.14
16525;BME280;8375;33.594;-117.718;2022-11-03T05:21:59;100479.00;;;13.55;75.13
16525;BME280;8375;33.594;-117.718;2022-11-03T05:24:30;100471.44;;;13.52;75.72
16525;BME280;8375;33.594;-117.718;2022-11-03T05:27:00;100469.78;;;13.51;75.29
16525;BME280;8375;33.594;-117.718;2022-11-03T05:29:34;100469.19;;;13.47;74.89
16525;BME280;8375;33.594;-117.718;2022-11-03T05:32:10;100464.25;;;13.44;74.75
16525;BME280;8375;33.594;-117.718;2022-11-03T05:34:41;100460.69;;;13.45;75.18
16525;BME280;8375;33.594;-117.718;2022-11-03T05:37:22;100467.03;;;13.52;74.67
16525;BME280;8375;33.594;-117.718;2022-11-03T05:39:53;100473.59;;;13.46;74.77
16525;BME280;8375;33.594;-117.718;2022-11-03T05:42:28;100465.63;;;13.48;75.15
16525;BME280;8375;33.594;-117.718;2022-11-03T05:45:02;100469.91;;;13.49;75.35
16525;BME280;8375;33.594;-117.718;2022-11-03T05:47:35;100465.53;;;13.49;75.46
16525;BME280;8375;33.594;-117.718;2022-11-03T05:50:13;100467.59;;;13.56;76.75
16525;BME280;8375;33.594;-117.718;2022-11-03T05:52:44;100463.19;;;13.56;75.80
16525;BME280;8375;33.594;-117.718;2022-11-03T05:55:22;100469.94;;;13.59;76.35
16525;BME280;8375;33.594;-117.718;2022-11-03T05:57:53;100462.25;;;13.57;77.47
16525;BME280;8375;33.594;-117.718;2022-11-03T06:00:28;100463.91;;;13.58;76.65
16525;BME280;8375;33.594;-117.718;2022-11-03T06:02:58;100458.94;;;13.55;76.48
16525;BME280;8375;33.594;-117.718;2022-11-03T06:05:27;100460.41;;;13.48;79.30
16525;BME280;8375;33.594;-117.718;2022-11-03T06:08:00;100456.84;;;13.49;79.55
16525;BME280;8375;33.594;-117.718;2022-11-03T06:10:33;100448.66;;;13.54;79.23
16525;BME280;8375;33.594;-117.718;2022-11-03T06:13:06;100455.47;;;13.45;78.81
16525;BME280;8375;33.594;-117.718;2022-11-03T06:15:37;100452.03;;;13.44;78.50
16525;BME280;8375;33.594;-117.718;2022-11-03T06:18:15;100453.56;;;13.47;78.36
16525;BME280;8375;33.594;-117.718;2022-11-03T06:20:47;100449.56;;;13.43;78.84
16525;BME280;8375;33.594;-117.718;2022-11-03T06:23:17;100444.56;;;13.40;78.47
16525;BME280;8375;33.594;-117.718;2022-11-03T06:25:48;100444.84;;;13.37;79.32
16525;BME280;8375;33.594;-117.718;2022-11-03T06:28:20;100441.78;;;13.31;78.27
16525;BME280;8375;33.594;-117.718;2022-11-03T06:30:54;100445.75;;;13.26;78.46
16525;BME280;8375;33.594;-117.718;2022-11-03T06:33:26;100448.03;;;13.19;79.98
16525;BME280;8375;33.594;-117.718;2022-11-03T06:35:59;100437.16;;;13.14;79.10
16525;BME280;8375;33.594;-117.718;2022-11-03T06:38:30;100434.75;;;13.01;79.26
16525;BME280;8375;33.594;-117.718;2022-11-03T06:40:59;100441.00;;;13.10;78.71
16525;BME280;8375;33.594;-117.718;2022-11-03T06:43:34;100435.78;;;13.10;79.45
16525;BME280;8375;33.594;-117.718;2022-11-03T06:46:13;100436.84;;;13.07;79.31
16525;BME280;8375;33.594;-117.718;2022-11-03T06:48:46;100441.44;;;13.15;79.87
16525;BME280;8375;33.594;-117.718;2022-11-03T06:51:18;100434.03;;;13.20;79.13
16525;BME280;8375;33.594;-117.718;2022-11-03T06:53:47;100431.44;;;13.20;79.30
16525;BME280;8375;33.594;-117.718;2022-11-03T06:56:20;100423.13;;;13.05;79.09
16525;BME280;8375;33.594;-117.718;2022-11-03T06:58:52;100425.28;;;13.00;78.45
16525;BME280;8375;33.594;-117.718;2022-11-03T07:01:25;100422.31;;;13.04;79.01
16525;BME280;8375;33.594;-117.718;2022-11-03T07:03:57;100420.66;;;13.03;79.46
16525;BME280;8375;33.594;-117.718;2022-11-03T07:06:30;100412.94;;;13.02;78.90
16525;BME280;8375;33.594;-117.718;2022-11-03T07:09:00;100416.78;;;12.98;78.92
16525;BME280;8375;33.594;-117.718;2022-11-03T07:11:33;100414.69;;;12.91;79.61
16525;BME280;8375;33.594;-117.718;2022-11-03T07:14:09;100406.84;;;12.91;80.11
16525;BME280;8375;33.594;-117.718;2022-11-03T07:16:42;100411.38;;;12.89;80.45
16525;BME280;8375;33.594;-117.718;2022-11-03T07:19:18;100404.56;;;12.77;77.50
16525;BME280;8375;33.594;-117.718;2022-11-03T07:21:49;100413.34;;;12.76;77.79
16525;BME280;8375;33.594;-117.718;2022-11-03T07:24:21;100410.75;;;12.76;76.47
16525;BME280;8375;33.594;-117.718;2022-11-03T07:26:55;100405.97;;;12.81;76.30
16525;BME280;8375;33.594;-117.718;2022-11-03T07:29:26;100409.69;;;12.79;75.93
16525;BME280;8375;33.594;-117.718;2022-11-03T07:31:58;100407.31;;;12.75;75.96
16525;BME280;8375;33.594;-117.718;2022-11-03T07:34:31;100410.63;;;12.77;76.09
16525;BME280;8375;33.594;-117.718;2022-11-03T07:37:00;100403.50;;;12.80;76.70
16525;BME280;8375;33.594;-117.718;2022-11-03T07:39:35;100400.91;;;12.80;75.86
16525;BME280;8375;33.594;-117.718;2022-11-03T07:42:12;100400.22;;;12.77;76.56
16525;BME280;8375;33.594;-117.718;2022-11-03T07:44:42;100402.81;;;12.77;76.89
16525;BME280;8375;33.594;-117.718;2022-11-03T07:47:17;100395.63;;;12.70;76.02
16525;BME280;8375;33.594;-117.718;2022-11-03T07:49:46;100401.09;;;12.67;75.05
16525;BME280;8375;33.594;-117.718;2022-11-03T07:52:18;100405.03;;;12.61;75.01
16525;BME280;8375;33.594;-117.718;2022-11-03T07:54:47;100395.69;;;12.58;73.75
16525;BME280;8375;33.594;-117.718;2022-11-03T07:57:20;100399.81;;;12.61;72.65
16525;BME280;8375;33.594;-117.718;2022-11-03T07:59:51;100405.28;;;12.58;71.37
16525;BME280;8375;33.594;-117.718;2022-11-03T08:02:30;100395.69;;;12.58;72.41
16525;BME280;8375;33.594;-117.718;2022-11-03T08:04:59;100401.47;;;12.62;72.19
16525;BME280;8375;33.594;-117.718;2022-11-03T08:07:28;100412.25;;;12.57;72.79
16525;BME280;8375;33.594;-117.718;2022-11-03T08:09:57;100408.69;;;12.58;71.98
16525;BME280;8375;33.594;-117.718;2022-11-03T08:12:25;100414.75;;;12.59;71.31
16525;BME280;8375;33.594;-117.718;2022-11-03T08:14:54;100408.59;;;12.60;72.75
16525;BME280;8375;33.594;-117.718;2022-11-03T08:17:24;100411.91;;;12.62;71.06
16525;BME280;8375;33.594;-117.718;2022-11-03T08:19:53;100403.13;;;12.63;71.67
16525;BME280;8375;33.594;-117.718;2022-11-03T08:22:22;100405.28;;;12.58;72.23
16525;BME280;8375;33.594;-117.718;2022-11-03T08:24:51;100402.69;;;12.58;73.38
16525;BME280;8375;33.594;-117.718;2022-11-03T08:27:20;100400.34;;;12.55;71.86
16525;BME280;8375;33.594;-117.718;2022-11-03T08:29:49;100395.38;;;12.52;72.26
16525;BME280;8375;33.594;-117.718;2022-11-03T08:32:17;100394.78;;;12.48;72.53
16525;BME280;8375;33.594;-117.718;2022-11-03T08:34:47;100404.63;;;12.44;72.57
16525;BME280;8375;33.594;-117.718;2022-11-03T08:37:16;100400.84;;;12.49;72.78
16525;BME280;8375;33.594;-117.718;2022-11-03T08:39:45;100397.38;;;12.48;72.04
16525;BME280;8375;33.594;-117.718;2022-11-03T08:42:13;100402.47;;;12.50;73.54
16525;BME280;8375;33.594;-117.718;2022-11-03T08:44:42;100399.19;;;12.47;71.76
16525;BME280;8375;33.594;-117.718;2022-11-03T08:47:12;100390.91;;;12.42;72.40
16525;BME280;8375;33.594;-117.718;2022-11-03T08:49:40;100392.31;;;12.46;72.47
16525;BME280;8375;33.594;-117.718;2022-11-03T08:52:11;100398.03;;;12.40;72.46
16525;BME280;8375;33.594;-117.718;2022-11-03T08:54:39;100390.06;;;12.42;73.76
16525;BME280;8375;33.594;-117.718;2022-11-03T08:57:08;100387.41;;;12.32;73.10
16525;BME280;8375;33.594;-117.718;2022-11-03T08:59:36;100393.69;;;12.29;72.17
16525;BME280;8375;33.594;-117.718;2022-11-03T09:02:05;100399.22;;;12.36;73.49
16525;BME280;8375;33.594;-117.718;2022-11-03T09:04:34;100399.09;;;12.38;72.70
16525;BME280;8375;33.594;-117.718;2022-11-03T09:07:03;100396.88;;;12.33;71.79
16525;BME280;8375;33.594;-117.718;2022-11-03T09:09:34;100386.72;;;12.30;71.21
16525;BME280;8375;33.594;-117.718;2022-11-03T09:12:02;100400.44;;;12.32;71.65
16525;BME280;8375;33.594;-117.718;2022-11-03T09:14:31;100395.72;;;12.26;72.30
16525;BME280;8375;33.594;-117.718;2022-11-03T09:17:00;100394.56;;;12.18;71.30
16525;BME280;8375;33.594;-117.718;2022-11-03T09:19:28;100395.28;;;12.21;71.31
16525;BME280;8375;33.594;-117.718;2022-11-03T09:21:57;100395.63;;;12.16;72.82
16525;BME280;8375;33.594;-117.718;2022-11-03T09:24:26;100397.41;;;12.15;72.82
16525;BME280;8375;33.594;-117.718;2022-11-03T09:26:57;100396.00;;;12.11;73.73
16525;BME280;8375;33.594;-117.718;2022-11-03T09:29:26;100383.09;;;12.10;74.13
16525;BME280;8375;33.594;-117.718;2022-11-03T09:31:54;100393.41;;;12.11;75.26
16525;BME280;8375;33.594;-117.718;2022-11-03T09:34:24;100392.94;;;12.06;75.07
16525;BME280;8375;33.594;-117.718;2022-11-03T09:36:52;100400.50;;;12.09;75.89
16525;BME280;8375;33.594;-117.718;2022-11-03T09:39:21;100389.97;;;12.11;76.51
16525;BME280;8375;33.594;-117.718;2022-11-03T09:41:50;100393.66;;;12.08;76.99
16525;BME280;8375;33.594;-117.718;2022-11-03T09:44:21;100388.44;;;12.08;76.99
16525;BME280;8375;33.594;-117.718;2022-11-03T09:46:50;100391.63;;;12.12;77.64
16525;BME280;8375;33.594;-117.718;2022-11-03T09:49:20;100387.59;;;12.08;76.75
16525;BME280;8375;33.594;-117.718;2022-11-03T09:51:48;100383.84;;;12.00;76.93
16525;BME280;8375;33.594;-117.718;2022-11-03T09:54:17;100375.22;;;12.00;77.24
16525;BME280;8375;33.594;-117.718;2022-11-03T09:56:46;100373.53;;;11.99;75.94
16525;BME280;8375;33.594;-117.718;2022-11-03T09:59:16;100379.22;;;12.04;76.79
16525;BME280;8375;33.594;-117.718;2022-11-03T10:01:48;100373.19;;;12.03;75.60
16525;BME280;8375;33.594;-117.718;2022-11-03T10:04:24;100368.44;;;11.97;76.32
16525;BME280;8375;33.594;-117.718;2022-11-03T10:06:54;100367.03;;;11.93;76.21
16525;BME280;8375;33.594;-117.718;2022-11-03T10:09:23;100375.44;;;11.97;76.44
16525;BME280;8375;33.594;-117.718;2022-11-03T10:11:54;100370.34;;;11.95;75.88
16525;BME280;8375;33.594;-117.718;2022-11-03T10:14:23;100370.50;;;11.94;75.76
16525;BME280;8375;33.594;-117.718;2022-11-03T10:16:56;100375.56;;;11.95;76.00
16525;BME280;8375;33.594;-117.718;2022-11-03T10:19:26;100376.41;;;11.96;74.81
16525;BME280;8375;33.594;-117.718;2022-11-03T10:21:54;100375.44;;;11.97;74.22
16525;BME280;8375;33.594;-117.718;2022-11-03T10:24:23;100377.91;;;11.98;73.23
16525;BME280;8375;33.594;-117.718;2022-11-03T10:26:53;100374.50;;;11.98;72.05
16525;BME280;8375;33.594;-117.718;2022-11-03T10:29:22;100366.78;;;11.96;71.86
16525;BME280;8375;33.594;-117.718;2022-11-03T10:31:54;100374.50;;;11.98;70.76
16525;BME280;8375;33.594;-117.718;2022-11-03T10:34:32;100366.09;;;11.94;70.03
16525;BME280;8375;33.594;-117.718;2022-11-03T10:37:22;100370.25;;;11.97;70.41
16525;BME280;8375;33.594;-117.718;2022-11-03T10:39:52;100366.34;;;11.91;70.33
16525;BME280;8375;33.594;-117.718;2022-11-03T10:42:22;100369.06;;;11.89;70.68
16525;BME280;8375;33.594;-117.718;2022-11-03T10:44:52;100365.38;;;11.92;71.63
16525;BME280;8375;33.594;-117.718;2022-11-03T10:47:31;100360.09;;;11.94;70.14
16525;BME280;8375;33.594;-117.718;2022-11-03T10:50:16;100358.78;;;11.88;70.26
16525;BME280;8375;33.594;-117.718;2022-11-03T10:52:46;100354.97;;;11.92;70.68
16525;BME280;8375;33.594;-117.718;2022-11-03T10:55:15;100358.78;;;11.88;70.00
16525;BME280;8375;33.594;-117.718;2022-11-03T10:57:45;100365.78;;;11.87;69.95
16525;BME280;8375;33.594;-117.718;2022-11-03T11:00:15;100353.22;;;11.93;69.48
16525;BME280;8375;33.594;-117.718;2022-11-03T11:02:47;100355.13;;;11.91;69.54
16525;BME280;8375;33.594;-117.718;2022-11-03T11:05:19;100360.09;;;11.94;69.58
16525;BME280;8375;33.594;-117.718;2022-11-03T11:07:51;100354.88;;;11.94;69.22
16525;BME280;8375;33.594;-117.718;2022-11-03T11:10:22;100359.94;;;11.95;70.51
16525;BME280;8375;33.594;-117.718;2022-11-03T11:13:05;100350.38;;;11.96;68.76
16525;BME280;8375;33.594;-117.718;2022-11-03T11:15:38;100353.31;;;12.02;68.74
16525;BME280;8375;33.594;-117.718;2022-11-03T11:18:08;100355.22;;;12.00;68.04
16525;BME280;8375;33.594;-117.718;2022-11-03T11:20:38;100347.53;;;11.99;67.40
16525;BME280;8375;33.594;-117.718;2022-11-03T11:26:33;100353.78;;;11.96;67.82
16525;BME280;8375;33.594;-117.718;2022-11-03T11:39:03;100344.25;;;11.85;70.29
16525;BME280;8375;33.594;-117.718;2022-11-03T11:42:06;100346.41;;;11.80;69.80
16525;BME280;8375;33.594;-117.718;2022-11-03T11:44:56;100344.38;;;11.84;70.16
16525;BME280;8375;33.594;-117.718;2022-11-03T11:47:30;100352.06;;;11.85;70.23
16525;BME280;8375;33.594;-117.718;2022-11-03T11:50:23;100351.13;;;11.86;70.91
16525;BME280;8375;33.594;-117.718;2022-11-03T11:52:57;100354.66;;;11.85;69.95
16525;BME280;8375;33.594;-117.718;2022-11-03T11:58:24;100346.97;;;11.84;69.27
16525;BME280;8375;33.594;-117.718;2022-11-03T12:01:00;100347.84;;;11.73;69.00
16525;BME280;8375;33.594;-117.718;2022-11-03T12:03:33;100349.59;;;11.72;69.31
16525;BME280;8375;33.594;-117.718;2022-11-03T12:06:05;100355.75;;;11.71;70.41
16525;BME280;8375;33.594;-117.718;2022-11-03T12:08:35;100355.91;;;11.58;68.70
16525;BME280;8375;33.594;-117.718;2022-11-03T12:11:05;100361.91;;;11.59;69.20
16525;BME280;8375;33.594;-117.718;2022-11-03T12:13:39;100356.72;;;11.59;69.00
16525;BME280;8375;33.594;-117.718;2022-11-03T12:16:09;100361.91;;;11.59;69.50
16525;BME280;8375;33.594;-117.718;2022-11-03T12:18:40;100358.25;;;11.62;70.77
16525;BME280;8375;33.594;-117.718;2022-11-03T12:21:11;100360.03;;;11.61;70.04
16525;BME280;8375;33.594;-117.718;2022-11-03T12:23:42;100356.84;;;11.57;68.95
16525;BME280;8375;33.594;-117.718;2022-11-03T12:26:16;100358.28;;;11.50;68.34
16525;BME280;8375;33.594;-117.718;2022-11-03T12:28:44;100363.97;;;11.44;68.46
16525;BME280;8375;33.594;-117.718;2022-11-03T12:31:13;100356.16;;;11.44;68.84
16525;BME280;8375;33.594;-117.718;2022-11-03T12:33:42;100355.94;;;11.36;68.51
16525;BME280;8375;33.594;-117.718;2022-11-03T12:36:12;100367.84;;;11.38;69.73
16525;BME280;8375;33.594;-117.718;2022-11-03T12:38:40;100365.25;;;11.38;69.32
16525;BME280;8375;33.594;-117.718;2022-11-03T12:41:09;100369.88;;;11.35;70.41
16525;BME280;8375;33.594;-117.718;2022-11-03T12:43:50;100367.63;;;11.30;69.88
16525;BME280;8375;33.594;-117.718;2022-11-03T12:46:22;100363.25;;;11.30;71.29
16525;BME280;8375;33.594;-117.718;2022-11-03T12:48:51;100365.84;;;11.19;70.72
16525;BME280;8375;33.594;-117.718;2022-11-03T12:51:23;100364.31;;;11.17;71.29
16525;BME280;8375;33.594;-117.718;2022-11-03T12:53:52;100369.88;;;11.12;70.02
16525;BME280;8375;33.594;-117.718;2022-11-03T12:56:20;100374.00;;;11.14;70.18
16525;BME280;8375;33.594;-117.718;2022-11-03T12:58:49;100381.56;;;11.18;71.45
16525;BME280;8375;33.594;-117.718;2022-11-03T13:01:17;100380.75;;;11.17;71.29
16525;BME280;8375;33.594;-117.718;2022-11-03T13:03:46;100380.59;;;11.19;71.19
16525;BME280;8375;33.594;-117.718;2022-11-03T13:06:15;100381.44;;;11.19;71.35
16525;BME280;8375;33.594;-117.718;2022-11-03T13:08:45;100384.50;;;11.13;72.74
16525;BME280;8375;33.594;-117.718;2022-11-03T13:11:15;100383.09;;;11.20;72.34
16525;BME280;8375;33.594;-117.718;2022-11-03T13:14:01;100385.00;;;11.18;72.34